Time;durP1;ratioP1;P1;durP2;ratioP2;P2;SDS_P1;SDS_P2;PMS_P1;PMS_P2;Temp;Humidity;BMP_temperature;BMP_pressure;BME280_temperature;BME280_humidity;BME280_pressure;Samples;Min_cycle;Max_cycle;Signal;HPM_P1;HPM_P2
2024/04/04 00:00:14;;;;;;;0.38;0.38;;;;;;;11.98;74.93;99199.34;5113640;28;20096;-66
2024/04/04 00:02:42;;;;;;;0.68;0.68;;;;;;;11.99;75.22;99201.03;5113886;28;20394;-65
2024/04/04 00:05:09;;;;;;;0.88;0.88;;;;;;;12.00;75.25;99201.84;5113885;28;20122;-66
2024/04/04 00:07:36;;;;;;;0.60;0.60;;;;;;;11.98;75.08;99199.34;5096756;28;20028;-66
2024/04/04 00:10:06;;;;;;;0.40;0.40;;;;;;;12.06;74.82;99207.75;5113519;28;20035;-66
2024/04/04 00:12:33;;;;;;;2.10;1.15;;;;;;;12.13;74.58;99194.88;5113582;28;20496;-66
2024/04/04 00:15:01;;;;;;;0.50;0.50;;;;;;;12.15;74.12;99200.78;5113983;28;20075;-66
2024/04/04 00:17:32;;;;;;;2.50;0.98;;;;;;;12.15;74.09;99206.75;5113723;28;20043;-66
2024/04/04 00:19:59;;;;;;;0.68;0.68;;;;;;;12.15;74.19;99205.91;5096289;28;20100;-66
2024/04/04 00:22:27;;;;;;;0.40;0.40;;;;;;;12.18;73.95;99205.88;5113473;28;20046;-66
2024/04/04 00:24:54;;;;;;;0.70;0.70;;;;;;;12.18;73.96;99201.63;5113523;28;20105;-66
2024/04/04 00:27:21;;;;;;;0.40;0.40;;;;;;;12.12;73.71;99205.97;5113364;28;20039;-66
2024/04/04 00:29:48;;;;;;;0.65;0.50;;;;;;;12.12;73.31;99205.97;5113190;28;20075;-66
2024/04/04 00:32:16;;;;;;;0.40;0.40;;;;;;;12.08;73.18;99211.13;5095888;28;20055;-66
2024/04/04 00:34:44;;;;;;;0.40;0.40;;;;;;;11.99;73.43;99213.81;5096124;28;20085;-67
2024/04/04 00:37:12;;;;;;;0.50;0.50;;;;;;;11.88;73.97;99223.34;5112429;28;20109;-66
2024/04/04 00:39:39;;;;;;;1.33;0.85;;;;;;;11.80;74.48;99219.22;5113361;28;20036;-66
2024/04/04 00:42:07;;;;;;;0.35;0.35;;;;;;;11.75;74.75;99229.50;5113141;28;20397;-66
2024/04/04 00:44:34;;;;;;;0.50;0.50;;;;;;;11.74;75.47;99224.38;5113101;28;20151;-66
2024/04/04 00:47:02;;;;;;;0.35;0.32;;;;;;;11.68;75.66;99222.78;5113418;28;20051;-66
2024/04/04 00:49:29;;;;;;;0.57;0.57;;;;;;;11.62;76.15;99238.13;5112654;28;20047;-66
2024/04/04 00:51:58;;;;;;;0.52;0.52;;;;;;;11.52;76.52;99231.44;5113140;28;20444;-66
2024/04/04 00:54:25;;;;;;;1.45;0.90;;;;;;;11.56;76.85;99235.66;5096025;28;20059;-66
2024/04/04 00:56:54;;;;;;;0.40;0.40;;;;;;;11.61;76.83;99231.34;5113140;28;20031;-66
2024/04/04 00:59:21;;;;;;;0.35;0.35;;;;;;;11.63;76.88;99234.72;5113105;28;20035;-66
2024/04/04 01:01:48;;;;;;;0.30;0.30;;;;;;;11.55;77.06;99233.09;5095881;28;20097;-66
2024/04/04 01:04:15;;;;;;;0.30;0.30;;;;;;;11.51;77.70;99234.03;5112970;28;20068;-67
2024/04/04 01:06:49;;;;;;;0.50;0.50;;;;;;;11.47;77.70;99229.81;5095751;28;20049;-66
2024/04/04 01:09:17;;;;;;;0.40;0.40;;;;;;;11.38;77.70;99220.53;5112686;28;20046;-66
2024/04/04 01:11:45;;;;;;;0.20;0.20;;;;;;;11.49;78.27;99233.19;5112913;28;20088;-66
2024/04/04 01:14:13;;;;;;;0.43;0.43;;;;;;;11.51;77.85;99226.34;5112547;28;20047;-66
2024/04/04 01:16:41;;;;;;;0.77;0.77;;;;;;;11.53;77.56;99230.59;5112871;28;20046;-65
2024/04/04 01:19:08;;;;;;;0.32;0.32;;;;;;;11.53;76.93;99229.72;5095613;28;20088;-66
2024/04/04 01:21:35;;;;;;;0.30;0.30;;;;;;;11.53;76.96;99230.59;5095898;28;20118;-66
2024/04/04 01:24:05;;;;;;;1.42;0.80;;;;;;;11.47;77.06;99225.53;5112517;28;20059;-66
2024/04/04 01:26:32;;;;;;;0.38;0.38;;;;;;;11.48;76.84;99234.91;5112844;28;20521;-67
2024/04/04 01:28:59;;;;;;;0.90;0.85;;;;;;;11.42;77.37;99233.25;5112365;28;20043;-66
2024/04/04 01:31:27;;;;;;;0.40;0.40;;;;;;;11.34;77.62;99234.22;5112789;28;20032;-66
2024/04/04 01:33:54;;;;;;;0.55;0.55;;;;;;;11.32;77.68;99235.94;5113147;28;20059;-67
2024/04/04 01:36:21;;;;;;;0.43;0.43;;;;;;;11.37;78.04;99239.28;5112691;28;20039;-67
2024/04/04 01:38:48;;;;;;;0.30;0.30;;;;;;;11.38;77.98;99243.53;5095486;28;20393;-66
2024/04/04 01:41:17;;;;;;;0.47;0.47;;;;;;;11.37;78.14;99231.63;5112689;28;20036;-66
2024/04/04 01:43:44;;;;;;;1.10;1.00;;;;;;;11.34;78.07;99236.78;5112446;28;20032;-66
2024/04/04 01:46:12;;;;;;;0.40;0.40;;;;;;;11.32;78.13;99230.84;5095629;28;20032;-66
2024/04/04 01:48:39;;;;;;;0.50;0.50;;;;;;;11.27;78.40;99240.25;5097942;28;20508;-67
2024/04/04 01:51:09;;;;;;;1.13;1.00;;;;;;;11.23;78.39;99246.22;5116346;28;20459;-66
2024/04/04 01:53:36;;;;;;;1.05;0.60;;;;;;;11.17;78.34;99242.06;5116447;28;20048;-66
2024/04/04 01:56:05;;;;;;;0.50;0.50;;;;;;;11.13;78.65;99229.34;5116093;28;20036;-67
2024/04/04 01:58:33;;;;;;;0.40;0.40;;;;;;;11.10;78.47;99239.56;5116324;28;20497;-67
2024/04/04 02:01:01;;;;;;;0.60;0.60;;;;;;;11.09;78.47;99242.97;5115972;28;20280;-66
2024/04/04 02:03:28;;;;;;;0.43;0.43;;;;;;;11.10;78.65;99244.69;5116585;28;20039;-67
2024/04/04 02:05:55;;;;;;;0.30;0.30;;;;;;;11.10;78.78;99242.13;5116106;28;20040;-68
2024/04/04 02:08:22;;;;;;;0.77;0.77;;;;;;;11.06;78.83;99237.94;5115832;28;20038;-67
2024/04/04 02:10:50;;;;;;;0.40;0.40;;;;;;;11.02;78.85;99236.25;5115724;28;20028;-66
2024/04/04 02:13:17;;;;;;;1.48;1.08;;;;;;;11.10;78.59;99244.69;5115810;28;20442;-67
2024/04/04 02:15:47;;;;;;;0.30;0.30;;;;;;;11.10;78.96;99239.56;5099340;28;20039;-66
2024/04/04 02:18:15;;;;;;;0.50;0.50;;;;;;;11.11;78.68;99242.09;5098952;28;20074;-67
2024/04/04 02:20:43;;;;;;;0.75;0.70;;;;;;;11.10;78.65;99245.53;5115423;28;20097;-67
2024/04/04 02:23:10;;;;;;;1.13;0.85;;;;;;;11.14;78.60;99246.34;5115836;28;20047;-67
2024/04/04 02:25:39;;;;;;;0.57;0.57;;;;;;;11.13;78.82;99250.59;5115783;28;20044;-67
2024/04/04 02:28:06;;;;;;;1.08;0.65;;;;;;;11.16;78.61;99254.81;5115649;28;20078;-66
2024/04/04 02:30:33;;;;;;;1.17;0.73;;;;;;;11.14;79.02;99246.34;5115365;28;20093;-66
2024/04/04 02:33:01;;;;;;;0.40;0.40;;;;;;;11.17;78.88;99244.63;5115638;28;20036;-67
2024/04/04 02:35:29;;;;;;;0.70;0.70;;;;;;;11.23;79.05;99252.19;5115277;28;20035;-67
2024/04/04 02:37:57;;;;;;;0.40;0.40;;;;;;;11.20;79.02;99251.41;5115271;28;20047;-67
2024/04/04 02:40:24;;;;;;;0.47;0.47;;;;;;;11.14;78.94;99251.44;5098694;28;20032;-67
2024/04/04 02:42:52;;;;;;;0.60;0.60;;;;;;;11.15;79.26;99258.25;5098491;28;20040;-67
2024/04/04 02:45:22;;;;;;;0.43;0.43;;;;;;;11.18;79.18;99245.47;5115418;28;20047;-67
2024/04/04 02:47:49;;;;;;;0.55;0.55;;;;;;;11.20;78.98;99251.41;5115044;28;20490;-66
2024/04/04 02:50:18;;;;;;;0.40;0.40;;;;;;;11.18;78.89;99258.22;5115412;28;20047;-67
2024/04/04 02:52:44;;;;;;;0.40;0.40;;;;;;;11.14;79.03;99259.97;5115583;28;20439;-66
2024/04/04 02:55:12;;;;;;;0.38;0.38;;;;;;;11.15;78.95;99258.25;5115512;28;20066;-66
2024/04/04 02:57:39;;;;;;;0.30;0.30;;;;;;;11.15;78.96;99254.00;5115032;28;20039;-67
2024/04/04 03:00:09;;;;;;;0.40;0.40;;;;;;;11.19;79.04;99265.00;5114367;28;20048;-66
2024/04/04 03:02:35;;;;;;;0.30;0.30;;;;;;;11.25;78.72;99260.69;5114774;28;20048;-67
2024/04/04 03:05:04;;;;;;;0.40;0.40;;;;;;;11.30;78.57;99258.09;5097877;28;20043;-67
2024/04/04 03:07:32;;;;;;;0.30;0.30;;;;;;;11.24;78.52;99258.16;5114765;28;20040;-66
2024/04/04 03:10:00;;;;;;;0.43;0.43;;;;;;;11.18;78.41;99265.91;5114957;28;20036;-66
2024/04/04 03:12:26;;;;;;;0.40;0.40;;;;;;;11.19;78.45;99265.00;5114840;28;20038;-67
2024/04/04 03:14:54;;;;;;;0.40;0.40;;;;;;;11.20;78.69;99262.47;5115097;28;20035;-67
2024/04/04 03:17:21;;;;;;;0.35;0.35;;;;;;;11.25;78.50;99265.78;5114709;28;20035;-66
2024/04/04 03:19:49;;;;;;;1.05;1.00;;;;;;;11.25;78.54;99264.97;5114312;28;20043;-66
2024/04/04 03:22:15;;;;;;;0.43;0.43;;;;;;;11.27;78.66;99274.31;5114791;28;20044;-66
2024/04/04 03:24:44;;;;;;;0.40;0.40;;;;;;;11.26;78.79;99271.75;5097690;28;20046;-67
2024/04/04 03:27:11;;;;;;;0.50;0.50;;;;;;;11.23;79.14;99271.78;5114253;28;20044;-66
2024/04/04 03:29:39;;;;;;;0.50;0.50;;;;;;;11.18;79.02;99268.44;5114102;28;20043;-66
2024/04/04 03:32:06;;;;;;;1.10;0.80;;;;;;;11.14;79.50;99275.28;5114906;28;20035;-67
2024/04/04 03:34:34;;;;;;;1.60;1.10;;;;;;;11.11;79.27;99272.75;5114417;28;20054;-67
2024/04/04 03:37:01;;;;;;;0.73;0.70;;;;;;;11.12;79.46;99278.72;5114649;28;20109;-66
2024/04/04 03:39:30;;;;;;;0.57;0.57;;;;;;;11.14;80.07;99282.09;5097535;28;20036;-67
2024/04/04 03:41:59;;;;;;;0.50;0.50;;;;;;;11.16;80.04;99276.09;5097079;28;20038;-67
2024/04/04 03:44:27;;;;;;;0.93;0.90;;;;;;;11.17;80.12;99279.53;5097298;28;20284;-67
2024/04/04 03:46:55;;;;;;;;;;;;;;;11.15;80.61;99283.81;5114625;28;20050;-67
2024/04/04 03:49:24;;;;;;;0.20;0.20;;;;;;;11.11;80.50;99285.50;5114080;28;19969;-67
2024/04/04 03:51:50;;;;;;;0.30;0.30;;;;;;;11.11;81.09;99288.06;5096849;28;20040;-67
2024/04/04 03:54:18;;;;;;;0.57;0.57;;;;;;;11.10;81.20;99290.66;5113720;28;20031;-67
2024/04/04 03:56:45;;;;;;;0.40;0.40;;;;;;;11.09;81.26;99283.84;5114308;28;20047;-67
2024/04/04 03:59:14;;;;;;;0.30;0.30;;;;;;;11.04;81.64;99280.47;5114261;28;20393;-66
2024/04/04 04:01:42;;;;;;;0.55;0.55;;;;;;;11.10;81.49;99303.41;5113530;28;20044;-68
2024/04/04 04:04:10;;;;;;;0.50;0.50;;;;;;;11.06;81.18;99304.31;5113668;28;20036;-67
2024/04/04 04:06:37;;;;;;;0.38;0.38;;;;;;;11.10;81.27;99305.97;5113767;28;20040;-67
2024/04/04 04:09:04;;;;;;;0.40;0.40;;;;;;;11.13;81.30;99298.28;5113721;28;20092;-67
2024/04/04 04:11:31;;;;;;;0.82;0.63;;;;;;;11.08;81.37;99306.00;5113263;28;20114;-66
2024/04/04 04:13:59;;;;;;;0.30;0.30;;;;;;;11.11;81.63;99312.78;5096408;28;20101;-67
2024/04/04 04:16:27;;;;;;;0.40;0.40;;;;;;;11.11;81.68;99316.16;5096525;28;20100;-66
2024/04/04 04:18:54;;;;;;;0.32;0.32;;;;;;;11.08;81.66;99312.81;5113423;28;20081;-66
2024/04/04 04:21:21;;;;;;;0.30;0.30;;;;;;;11.06;81.53;99310.25;5078812;28;20397;-66
2024/04/04 04:23:49;;;;;;;0.32;0.32;;;;;;;11.03;81.62;99314.56;5113544;28;20036;-65
2024/04/04 04:26:17;;;;;;;0.75;0.75;;;;;;;11.06;82.08;99317.09;5113226;28;20505;-66
2024/04/04 04:28:44;;;;;;;1.02;0.85;;;;;;;11.04;82.45;99317.06;5113458;28;20044;-66
2024/04/04 04:31:24;;;;;;;0.50;0.50;;;;;;;11.05;82.52;99312.81;5096384;28;20067;-66
2024/04/04 04:33:53;;;;;;;0.88;0.88;;;;;;;11.00;82.77;99317.13;5096547;28;20055;-65
2024/04/04 04:36:23;;;;;;;0.47;0.47;;;;;;;11.00;82.57;99319.69;5096435;28;20093;-66
2024/04/04 04:38:50;;;;;;;0.50;0.50;;;;;;;10.98;82.86;99316.28;5113318;28;20044;-66
2024/04/04 04:41:18;;;;;;;0.50;0.50;;;;;;;11.00;83.03;99325.63;5096237;28;20073;-65
2024/04/04 04:43:46;;;;;;;0.47;0.47;;;;;;;11.02;83.49;99328.16;5113250;28;20097;-64
2024/04/04 04:46:14;;;;;;;0.50;0.50;;;;;;;10.98;83.42;99329.06;5096563;28;20472;-65
2024/04/04 04:48:41;;;;;;;0.38;0.38;;;;;;;10.94;83.53;99335.06;5113217;28;20072;-65
2024/04/04 04:51:10;;;;;;;0.50;0.50;;;;;;;10.96;83.80;99333.34;5113439;28;20039;-65
2024/04/04 04:53:38;;;;;;;0.60;0.60;;;;;;;10.93;83.52;99333.34;5096001;28;20039;-65
2024/04/04 04:56:06;;;;;;;0.40;0.40;;;;;;;10.89;83.21;99331.69;5112933;28;20042;-64
2024/04/04 04:58:33;;;;;;;0.50;0.50;;;;;;;10.89;83.25;99334.25;5096061;28;20032;-65
2024/04/04 05:01:03;;;;;;;0.30;0.30;;;;;;;10.82;83.28;99335.16;5113564;28;20036;-66
2024/04/04 05:03:31;;;;;;;0.63;0.63;;;;;;;10.81;83.30;99343.66;5113009;28;20039;-65
2024/04/04 05:05:58;;;;;;;0.50;0.47;;;;;;;10.83;83.40;99347.03;5112983;28;20504;-66
2024/04/04 05:08:27;;;;;;;0.63;0.63;;;;;;;10.82;83.49;99337.69;5112911;28;20047;-66
2024/04/04 05:10:55;;;;;;;0.40;0.40;;;;;;;10.73;83.67;99326.69;5112556;28;20506;-66
2024/04/04 05:13:21;;;;;;;0.30;0.30;;;;;;;10.81;84.05;99348.75;5112912;28;20070;-65
2024/04/04 05:15:55;;;;;;;0.63;0.60;;;;;;;10.81;84.04;99343.66;5112850;28;20039;-65
2024/04/04 05:18:22;;;;;;;0.90;0.65;;;;;;;10.81;83.99;99344.50;5112952;28;20535;-67
2024/04/04 05:20:50;;;;;;;0.32;0.32;;;;;;;10.93;84.19;99348.69;5112714;28;20089;-64
2024/04/04 05:23:16;;;;;;;0.73;0.73;;;;;;;10.90;84.13;99348.69;5114653;28;20040;-63
2024/04/04 05:25:45;;;;;;;0.40;0.40;;;;;;;10.92;84.42;99354.66;5116649;28;20054;-63
2024/04/04 05:28:12;;;;;;;0.50;0.50;;;;;;;10.99;84.11;99356.31;5116554;28;20036;-63
2024/04/04 05:30:40;;;;;;;0.57;0.57;;;;;;;11.03;84.33;99357.97;5099756;28;20036;-64
2024/04/04 05:33:07;;;;;;;0.82;0.60;;;;;;;11.01;84.32;99352.88;5116766;28;20039;-64
2024/04/04 05:35:34;;;;;;;0.38;0.38;;;;;;;11.04;84.67;99346.88;5116739;28;20043;-63
2024/04/04 05:38:01;;;;;;;1.02;1.00;;;;;;;11.06;84.54;99340.91;5099537;28;20431;-64
2024/04/04 05:40:29;;;;;;;0.43;0.43;;;;;;;11.13;84.27;99351.94;5099678;28;20039;-64
2024/04/04 05:42:57;;;;;;;0.60;0.60;;;;;;;11.11;84.57;99353.66;5099974;28;20028;-63
2024/04/04 05:45:24;;;;;;;0.40;0.40;;;;;;;11.15;84.62;99356.16;5116501;28;20043;-63
2024/04/04 05:47:51;;;;;;;1.13;1.05;;;;;;;11.16;84.71;99357.00;5116199;28;20097;-64
2024/04/04 05:50:19;;;;;;;0.32;0.32;;;;;;;11.13;84.59;99369.81;5116586;28;20032;-64
2024/04/04 05:52:45;;;;;;;0.55;0.55;;;;;;;11.13;84.72;99364.69;5116723;28;20038;-64
2024/04/04 05:55:14;;;;;;;0.50;0.50;;;;;;;11.14;84.72;99364.69;5116327;28;20509;-64
2024/04/04 05:57:40;;;;;;;0.70;0.70;;;;;;;11.19;84.78;99368.03;5115968;28;20566;-64
2024/04/04 06:00:11;;;;;;;0.50;0.50;;;;;;;11.16;84.56;99362.09;5116546;28;20044;-64
2024/04/04 06:02:39;;;;;;;1.20;1.00;;;;;;;11.30;84.62;99380.75;5116489;28;20489;-64
2024/04/04 06:05:07;;;;;;;0.55;0.55;;;;;;;11.32;84.79;99373.91;5115819;28;20032;-64
2024/04/04 06:07:35;;;;;;;0.88;0.82;;;;;;;11.31;85.07;99375.59;5116218;28;20485;-63
2024/04/04 06:10:03;;;;;;;0.52;0.52;;;;;;;11.38;84.88;99384.06;5115848;28;20028;-64
2024/04/04 06:12:30;;;;;;;0.40;0.40;;;;;;;11.42;84.68;99388.31;5099378;28;20122;-63
2024/04/04 06:14:58;;;;;;;0.65;0.65;;;;;;;11.44;84.43;99389.13;5115890;28;20046;-64
2024/04/04 06:17:26;;;;;;;0.60;0.60;;;;;;;11.48;84.25;99385.66;5115873;28;20126;-63
2024/04/04 06:19:54;;;;;;;0.30;0.30;;;;;;;11.54;83.89;99395.81;5098575;28;20039;-63
2024/04/04 06:22:21;;;;;;;0.95;0.68;;;;;;;11.69;83.67;99392.31;5115790;28;20035;-64
2024/04/04 06:24:49;;;;;;;0.95;0.77;;;;;;;11.82;83.43;99389.63;5115523;28;20485;-63
2024/04/04 06:27:15;;;;;;;0.40;0.40;;;;;;;11.89;82.79;99393.81;5115660;28;20489;-64
2024/04/04 06:29:43;;;;;;;0.73;0.73;;;;;;;11.95;82.75;99393.72;5115586;28;20502;-64
2024/04/04 06:32:10;;;;;;;0.60;0.60;;;;;;;12.06;82.73;99398.75;5115259;28;20054;-64
2024/04/04 06:34:39;;;;;;;0.50;0.50;;;;;;;12.19;82.28;99391.78;5114156;28;20091;-65
2024/04/04 06:37:06;;;;;;;0.38;0.38;;;;;;;12.28;81.31;99396.78;5115275;28;20036;-64
2024/04/04 06:39:36;;;;;;;0.40;0.40;;;;;;;12.35;80.64;99403.53;5115481;28;20043;-64
2024/04/04 06:42:03;;;;;;;0.32;0.32;;;;;;;12.49;79.83;99401.63;5115538;28;20031;-64
2024/04/04 06:44:32;;;;;;;0.40;0.40;;;;;;;12.57;79.06;99394.72;5115611;28;20051;-64
2024/04/04 06:46:59;;;;;;;0.35;0.35;;;;;;;12.69;79.04;99404.78;5115411;28;20036;-64
2024/04/04 06:49:26;;;;;;;0.38;0.38;;;;;;;12.78;78.57;99396.97;5115145;28;20084;-64
2024/04/04 06:51:55;;;;;;;0.40;0.40;;;;;;;12.98;77.97;99402.63;5098262;28;20050;-64
2024/04/04 06:54:23;;;;;;;0.35;0.35;;;;;;;13.31;77.71;99406.44;5115171;28;20073;-65
2024/04/04 06:56:50;;;;;;;0.32;0.32;;;;;;;13.50;76.65;99414.66;5098019;28;20085;-63
2024/04/04 06:59:17;;;;;;;0.30;0.30;;;;;;;13.54;75.36;99419.72;5115085;28;20524;-64
2024/04/04 07:01:44;;;;;;;0.40;0.40;;;;;;;13.55;74.74;99423.13;5115004;28;20097;-64
2024/04/04 07:04:12;;;;;;;1.27;0.73;;;;;;;13.54;73.98;99424.84;5114854;28;20031;-64
2024/04/04 07:06:39;;;;;;;0.40;0.40;;;;;;;13.50;73.33;99417.22;5114874;28;20527;-64
2024/04/04 07:09:09;;;;;;;0.38;0.38;;;;;;;13.50;73.33;99414.66;5114752;28;20042;-64
2024/04/04 07:11:35;;;;;;;0.40;0.40;;;;;;;13.47;72.91;99423.25;5096915;28;20439;-66
2024/04/04 07:14:03;;;;;;;0.40;0.40;;;;;;;13.50;73.23;99423.19;5114974;28;20111;-63
2024/04/04 07:16:30;;;;;;;0.35;0.35;;;;;;;13.59;73.43;99427.31;5114480;28;20039;-64
2024/04/04 07:18:58;;;;;;;0.32;0.32;;;;;;;13.73;73.34;99430.50;5097489;28;20513;-64
2024/04/04 07:21:24;;;;;;;0.38;0.38;;;;;;;13.81;72.51;99436.34;5114765;28;20047;-64
2024/04/04 07:23:52;;;;;;;1.20;1.10;;;;;;;13.87;72.53;99436.22;5097526;28;20136;-64
2024/04/04 07:26:20;;;;;;;0.40;0.40;;;;;;;13.97;71.89;99445.44;5114578;28;20051;-64
2024/04/04 07:28:48;;;;;;;0.40;0.40;;;;;;;14.17;71.93;99448.50;5114270;28;20047;-64
2024/04/04 07:31:14;;;;;;;0.40;0.40;;;;;;;14.21;71.44;99450.13;5114345;28;20039;-65
2024/04/04 07:33:44;;;;;;;0.50;0.50;;;;;;;14.20;71.20;99453.59;5097594;28;20039;-64
2024/04/04 07:36:10;;;;;;;0.50;0.50;;;;;;;14.35;71.79;99458.44;5114459;28;20042;-65
2024/04/04 07:38:40;;;;;;;0.32;0.32;;;;;;;14.27;71.17;99434.63;5114047;28;20558;-64
2024/04/04 07:41:08;;;;;;;0.50;0.50;;;;;;;14.40;71.27;99451.50;5114234;28;20040;-65
2024/04/04 07:43:37;;;;;;;0.50;0.50;;;;;;;14.37;70.64;99448.97;5114524;28;20134;-65
2024/04/04 07:46:06;;;;;;;0.40;0.40;;;;;;;14.45;70.48;99448.81;5114048;28;20036;-65
2024/04/04 07:48:34;;;;;;;0.60;0.60;;;;;;;14.50;70.47;99442.72;5097585;28;20044;-65
2024/04/04 07:51:03;;;;;;;0.52;0.40;;;;;;;14.64;70.29;99445.84;5113802;28;20032;-65
2024/04/04 07:53:31;;;;;;;0.40;0.40;;;;;;;14.66;69.94;99438.13;5097149;28;20057;-66
2024/04/04 07:55:58;;;;;;;0.40;0.40;;;;;;;14.67;69.68;99450.94;5113695;28;20413;-65
2024/04/04 07:58:26;;;;;;;0.40;0.40;;;;;;;14.71;69.56;99452.56;5097127;28;20043;-65
2024/04/04 08:00:56;;;;;;;0.30;0.30;;;;;;;14.73;68.78;99455.94;5113901;28;20043;-65
2024/04/04 08:03:23;;;;;;;0.30;0.30;;;;;;;14.80;69.03;99458.38;5114335;28;20058;-65
2024/04/04 08:05:55;;;;;;;2.17;1.10;;;;;;;14.88;68.68;99456.47;5113479;28;20055;-65
2024/04/04 08:08:23;;;;;;;0.50;0.50;;;;;;;14.84;68.72;99457.44;5113929;28;20047;-66
2024/04/04 08:10:51;;;;;;;0.40;0.40;;;;;;;14.86;69.06;99460.81;5096575;28;20032;-65
2024/04/04 08:13:18;;;;;;;0.50;0.50;;;;;;;14.83;68.09;99460.91;5113558;28;20127;-65
2024/04/04 08:15:50;;;;;;;0.22;0.22;;;;;;;14.72;68.50;99463.69;5113446;28;20035;-65
2024/04/04 08:18:18;;;;;;;0.65;0.65;;;;;;;14.58;68.86;99456.28;5096604;28;20062;-65
2024/04/04 08:20:46;;;;;;;2.35;1.45;;;;;;;14.52;68.78;99476.06;5113051;28;20093;-65
2024/04/04 08:23:13;;;;;;;0.40;0.40;;;;;;;14.42;69.21;99477.97;5113570;28;20047;-65
2024/04/04 08:25:52;;;;;;;0.40;0.40;;;;;;;14.31;69.49;99476.50;5113158;28;20096;-65
2024/04/04 08:28:19;;;;;;;0.40;0.40;;;;;;;14.23;70.27;99481.75;5095624;28;20044;-65
2024/04/04 08:30:47;;;;;;;0.40;0.40;;;;;;;14.17;70.34;99476.75;5113247;28;20047;-66
2024/04/04 08:33:13;;;;;;;0.50;0.50;;;;;;;14.14;70.93;99479.34;5113686;28;20103;-66
2024/04/04 08:35:42;;;;;;;0.70;0.60;;;;;;;14.12;70.98;99473.41;5095993;28;20458;-65
2024/04/04 08:38:09;;;;;;;0.30;0.30;;;;;;;14.14;71.40;99476.78;5113276;28;20142;-65
2024/04/04 08:40:39;;;;;;;0.30;0.30;;;;;;;14.13;71.81;99487.09;5096363;28;20089;-65
2024/04/04 08:43:06;;;;;;;1.02;0.77;;;;;;;14.09;71.99;99491.41;5096083;28;20047;-65
2024/04/04 08:45:40;;;;;;;13.10;1.92;;;;;;;13.99;72.60;99492.44;5113184;28;20040;-66
2024/04/04 08:48:07;;;;;;;0.43;0.43;;;;;;;13.94;72.89;99487.41;5096007;28;20122;-66
2024/04/04 08:50:35;;;;;;;0.70;0.70;;;;;;;13.93;72.95;99490.00;5113021;28;20047;-65
2024/04/04 08:53:04;;;;;;;0.60;0.60;;;;;;;13.93;73.34;99492.56;5095927;28;20040;-65
2024/04/04 08:55:31;;;;;;;0.65;0.65;;;;;;;13.91;73.54;99496.88;5113037;28;20481;-65
2024/04/04 08:57:58;;;;;;;0.40;0.40;;;;;;;13.87;73.72;99496.06;5112268;28;20518;-66
2024/04/04 09:00:26;;;;;;;0.40;0.40;;;;;;;13.93;74.12;99493.44;5112779;28;20044;-65
2024/04/04 09:02:53;;;;;;;0.60;0.50;;;;;;;13.97;74.41;99495.06;5113017;28;20130;-65
2024/04/04 09:05:21;;;;;;;0.43;0.43;;;;;;;14.01;74.79;99499.25;5112970;28;20051;-65
2024/04/04 09:07:48;;;;;;;0.40;0.40;;;;;;;14.06;75.41;99499.16;5112898;28;20043;-66
2024/04/04 09:10:18;;;;;;;0.47;0.47;;;;;;;14.16;76.01;99503.25;5112890;28;20039;-65
2024/04/04 09:12:45;;;;;;;0.40;0.40;;;;;;;14.18;75.71;99506.66;5112737;28;20043;-66
2024/04/04 09:15:13;;;;;;;0.82;0.82;;;;;;;14.25;75.17;99498.00;5112520;28;20093;-64
2024/04/04 09:17:40;;;;;;;0.40;0.40;;;;;;;14.26;75.01;99491.97;5095997;28;20042;-64
2024/04/04 09:20:11;;;;;;;0.50;0.50;;;;;;;14.26;74.93;99484.25;5112756;28;20481;-64
2024/04/04 09:22:38;;;;;;;0.50;0.50;;;;;;;14.28;75.65;99490.22;5112951;28;20059;-64
2024/04/04 09:25:07;;;;;;;0.50;0.50;;;;;;;14.37;75.90;99482.34;5113110;28;20035;-63
2024/04/04 09:27:36;;;;;;;6.22;0.80;;;;;;;14.47;75.60;99468.47;5112878;28;20342;-64
2024/04/04 09:30:12;;;;;;;0.40;0.40;;;;;;;14.66;75.52;99480.06;5112506;28;20389;-64
2024/04/04 09:32:39;;;;;;;1.02;0.93;;;;;;;15.01;75.76;99478.47;5095634;28;20044;-63
2024/04/04 09:35:08;;;;;;;0.55;0.55;;;;;;;15.27;74.60;99478.75;5095814;28;20036;-63
2024/04/04 09:37:35;;;;;;;;;;;;;;;15.34;74.41;99475.16;5113125;28;20046;-65
2024/04/04 09:40:05;;;;;;;0.40;0.40;;;;;;;15.54;74.21;99478.13;5095698;28;19920;-63
2024/04/04 09:42:33;;;;;;;0.43;0.43;;;;;;;15.96;73.62;99487.34;5112698;28;20044;-64
2024/04/04 09:45:03;;;;;;;0.45;0.45;;;;;;;16.13;73.40;99492.06;5095661;28;20074;-64
2024/04/04 09:47:30;;;;;;;0.50;0.50;;;;;;;16.20;72.80;99480.72;5094927;28;20052;-64
2024/04/04 09:49:58;;;;;;;0.43;0.43;;;;;;;16.09;71.87;99496.47;5100660;28;20055;-63
2024/04/04 09:52:27;;;;;;;0.40;0.40;;;;;;;16.16;71.42;99486.00;5091959;28;20044;-64
2024/04/04 09:54:55;;;;;;;0.85;0.75;;;;;;;16.07;71.30;99492.25;5092222;28;20090;-64
2024/04/04 09:57:23;;;;;;;0.40;0.40;;;;;;;16.04;70.62;99485.44;5092113;28;20044;-64
2024/04/04 10:00:14;;;;;;;0.32;0.32;;;;;;;16.24;70.49;99486.66;5092118;28;20044;-64
2024/04/04 10:02:46;;;;;;;0.40;0.40;;;;;;;16.49;69.77;99477.34;5074528;28;20398;-64
2024/04/04 10:05:16;;;;;;;0.38;0.38;;;;;;;16.58;69.45;99477.16;5075214;28;20486;-64
2024/04/04 10:07:44;;;;;;;0.52;0.40;;;;;;;16.51;69.19;99478.16;5075164;28;20072;-64
2024/04/04 10:10:16;;;;;;;0.73;0.73;;;;;;;16.66;68.71;99470.03;5094970;28;20425;-64
2024/04/04 10:12:45;;;;;;;0.60;0.50;;;;;;;16.82;68.21;99471.25;5095803;28;20390;-65
2024/04/04 10:15:18;;;;;;;0.50;0.50;;;;;;;16.99;67.59;99470.78;5095400;28;20040;-64
2024/04/04 10:17:48;;;;;;;0.47;0.47;;;;;;;17.12;67.28;99444.56;5078830;28;20044;-63
2024/04/04 10:20:17;;;;;;;0.93;0.93;;;;;;;17.64;67.38;99471.31;5095333;28;20117;-65
2024/04/04 10:22:44;;;;;;;4.60;2.10;;;;;;;17.81;65.52;99456.09;5096309;28;20382;-64
2024/04/04 10:25:12;;;;;;;1.02;0.98;;;;;;;17.95;64.95;99471.97;5095209;28;20043;-65
2024/04/04 10:27:40;;;;;;;0.43;0.43;;;;;;;17.95;63.54;99479.72;5095227;28;20051;-64
2024/04/04 10:30:08;;;;;;;0.65;0.65;;;;;;;18.06;63.99;99467.31;5095024;28;20089;-66
2024/04/04 10:32:36;;;;;;;0.50;0.50;;;;;;;18.02;63.34;99451.06;5095424;28;20036;-65
2024/04/04 10:35:05;;;;;;;0.50;0.50;;;;;;;17.75;63.64;99482.16;5095240;28;20042;-64
2024/04/04 10:37:32;;;;;;;0.65;0.50;;;;;;;17.65;64.00;99480.75;5095155;28;20040;-64
2024/04/04 10:40:00;;;;;;;0.40;0.40;;;;;;;17.77;63.85;99485.50;5095093;28;20044;-64
2024/04/04 10:42:26;;;;;;;0.40;0.40;;;;;;;17.83;63.72;99480.97;5095260;28;20437;-64
2024/04/04 10:44:54;;;;;;;0.50;0.50;;;;;;;18.06;64.22;99487.97;5095056;28;20039;-65
2024/04/04 10:47:21;;;;;;;0.40;0.40;;;;;;;18.21;63.48;99482.25;5078255;28;20047;-64
2024/04/04 10:49:52;;;;;;;0.57;0.57;;;;;;;18.34;63.03;99480.09;5094871;28;20123;-65
2024/04/04 10:52:19;;;;;;;0.50;0.50;;;;;;;18.29;62.09;99480.25;5094930;28;20044;-64
2024/04/04 10:54:47;;;;;;;0.50;0.50;;;;;;;18.16;62.33;99486.78;5061218;28;20071;-64
2024/04/04 10:57:15;;;;;;;0.52;0.52;;;;;;;18.07;62.39;99484.47;5094608;28;20036;-65
2024/04/04 10:59:43;;;;;;;0.47;0.47;;;;;;;18.18;62.54;99477.22;5094519;28;20402;-65
2024/04/04 11:02:12;;;;;;;0.38;0.38;;;;;;;18.07;62.83;99471.56;5077775;28;20059;-65
2024/04/04 11:04:40;;;;;;;0.40;0.40;;;;;;;17.95;61.91;99464.22;5077842;28;20047;-65
2024/04/04 11:07:10;;;;;;;0.40;0.40;;;;;;;17.78;62.26;99471.72;5094601;28;20043;-65
2024/04/04 11:09:38;;;;;;;0.45;0.45;;;;;;;17.60;62.47;99472.31;5094569;28;20405;-65
2024/04/04 11:12:05;;;;;;;2.33;1.10;;;;;;;17.44;62.84;99480.50;5094508;28;20555;-65
2024/04/04 11:14:35;;;;;;;0.40;0.40;;;;;;;17.47;63.08;99471.00;5094400;28;20044;-66
2024/04/04 11:17:03;;;;;;;0.50;0.50;;;;;;;17.55;63.25;99476.78;5094552;28;20074;-66
2024/04/04 11:19:30;;;;;;;1.08;0.90;;;;;;;17.63;62.95;99474.81;5077322;28;20078;-67
2024/04/04 11:21:57;;;;;;;0.50;0.50;;;;;;;17.60;61.78;99480.06;5093298;28;20406;-67
2024/04/04 11:24:28;;;;;;;0.30;0.30;;;;;;;17.67;61.88;99473.81;5094479;28;20048;-64
2024/04/04 11:26:56;;;;;;;0.50;0.50;;;;;;;18.16;61.75;99473.84;5094282;28;20044;-64
2024/04/04 11:29:24;;;;;;;0.57;0.57;;;;;;;18.58;60.46;99469.75;5077183;28;20048;-66
2024/04/04 11:31:53;;;;;;;0.40;0.40;;;;;;;18.66;59.99;99472.06;5094031;28;20044;-64
2024/04/04 11:34:21;;;;;;;0.75;0.75;;;;;;;18.60;59.04;99469.69;5093943;28;20058;-65
2024/04/04 11:36:48;;;;;;;0.35;0.35;;;;;;;18.65;59.05;99466.03;5077376;28;20044;-65